Big Pine Key, FL

2:13 AM EST on February 12, 2016 (GMT -0500)
RAWS | | Change Station
CLOSE
Current Station
Personal Weather Station
Location: Summerland Key, FL
Elevation: 9 ft
Nearby Weather Stations

Elev 9 ft 24.72 °N, 81.39 °W | Updated 35 minutes ago

Clear
Clear
62.0 °F
Feels Like 62.0 °F
N
5.0
Wind Variable Wind from NE
Gusts 10.0 mph

Today
High -- | Low -- °F
--% Chance of Precip.
Yesterday
High -- | Low -- °F
Precip. -- in
Pressure 30.24 in
Visibility 10.0 miles
Clouds Clear
Dew Point 54.0 °F
Humidity 76%
Rainfall in
Snow Depth Not available.
7:01 AM 6:17 PM
Waxing Crescent, 18% visible
METAR KNQX 120653Z AUTO 03005KT 10SM CLR 16/12 A3025 RMK AO2 SLP240 T01560122 $
Pressure 30.24 in
Visibility 10.0 miles
Clouds Clear
Dew Point 54.0 °F
Humidity 76%
Rainfall in
Snow Depth Not available.
7:01 AM 6:17 PM
Waxing Crescent, 18% visible
METAR KNQX 120653Z AUTO 03005KT 10SM CLR 16/12 A3025 RMK AO2 SLP240 T01560122 $

10-Day Weather Forecast

Almanac

Astronomy

Feb. 12, 2016 Rise Set
Actual Time
Civil Twilight
Nautical Twilight
Astronomical Twilight
Moon
Length of Visible Light
Length of Day
Tomorrow will be .
, % of the Moon is Illuminated

Today's Extremes

State Highs State Lows

Community

WunderPhotos

Upload Photos

1,892,278 photos uploaded!

WunderBlog® & News

Nearby

Air Quality

  Air Quality AQ Index Pollutant
Not available.

Snow Depth

Station Depth Elevation

Earthquake Activity

City Distance Mag. Time & Date
Minimum magnitude displayed is 2.5.

Coastal Water Temperatures

Place Temperature

Stations

Nearby Weather Stations

Station Location Temp. Windchill Dew Point Humidity Wind Precip. Elev Updated Type
                   

Watches & Warnings

There are currently no watches in effect.